Time;durP1;ratioP1;P1;durP2;ratioP2;P2;SDS_P1;SDS_P2;PMS_P1;PMS_P2;Temp;Humidity;BMP_temperature;BMP_pressure;BME280_temperature;BME280_humidity;BME280_pressure;Samples;Min_cycle;Max_cycle;Signal;HPM_P1;HPM_P2
2023/07/03 00:00:35;;;;;;;;;;;15.10;99.90;;;;;;5012304;28;20299;-90
2023/07/03 00:03:02;;;;;;;;;;;15.10;99.90;;;;;;4975864;28;19926;-91
2023/07/03 00:05:27;;;;;;;;;;;15.10;99.90;;;;;;5011327;28;19925;-92
2023/07/03 00:07:53;;;;;;;;;;;15.10;99.90;;;;;;5012065;28;19925;-90
2023/07/03 00:10:21;;;;;;;;;;;15.10;99.90;;;;;;5008573;28;19998;-90
2023/07/03 00:12:47;;;;;;;;;;;15.10;99.90;;;;;;5012186;28;20293;-91
2023/07/03 00:15:13;;;;;;;;;;;15.00;99.90;;;;;;5011852;28;19941;-90
2023/07/03 00:17:38;;;;;;;;;;;15.00;99.90;;;;;;5010333;28;19925;-91
2023/07/03 00:20:05;;;;;;;;;;;15.00;99.90;;;;;;5012400;28;19995;-91
2023/07/03 00:22:31;;;;;;;;;;;15.00;99.90;;;;;;5011594;28;20015;-91
2023/07/03 00:24:56;;;;;;;;;;;15.00;99.90;;;;;;5012021;28;20047;-89
2023/07/03 00:27:22;;;;;;;;;;;15.00;99.90;;;;;;5009956;28;20073;-90
2023/07/03 00:29:48;;;;;;;;;;;15.00;99.90;;;;;;5012051;28;19926;-90
2023/07/03 00:32:13;;;;;;;;;;;15.00;99.90;;;;;;5009875;28;19926;-90
2023/07/03 00:34:39;;;;;;;;;;;14.90;99.90;;;;;;5009553;28;20370;-90
2023/07/03 00:37:05;;;;;;;;;;;14.90;99.90;;;;;;5009839;28;19988;-90
2023/07/03 00:39:30;;;;;;;;;;;15.00;99.90;;;;;;4993812;28;19987;-90
2023/07/03 00:41:56;;;;;;;;;;;15.00;99.90;;;;;;5003985;28;20013;-89
2023/07/03 00:44:22;;;;;;;;;;;15.00;99.90;;;;;;5011585;28;19961;-90
2023/07/03 00:46:49;;;;;;;;;;;14.90;99.90;;;;;;5003899;28;19968;-91
2023/07/03 00:49:15;;;;;;;;;;;14.90;99.90;;;;;;5012243;28;19963;-91
2023/07/03 00:51:42;;;;;;;;;;;14.90;99.90;;;;;;5011974;28;19925;-91
2023/07/03 00:54:08;;;;;;;;;;;14.90;99.90;;;;;;5014665;28;20019;-91
2023/07/03 00:56:34;;;;;;;;;;;14.90;99.90;;;;;;5012963;28;19984;-91
2023/07/03 00:59:01;;;;;;;;;;;14.90;99.90;;;;;;4995080;28;19977;-91
2023/07/03 01:01:34;;;;;;;;;;;14.80;99.90;;;;;;5012710;28;19952;-91
2023/07/03 01:04:11;;;;;;;;;;;14.80;99.90;;;;;;4998570;28;19972;-90
2023/07/03 01:06:44;;;;;;;;;;;14.80;99.90;;;;;;5014522;28;20081;-91
2023/07/03 01:09:11;;;;;;;;;;;14.80;99.90;;;;;;5007175;28;20436;-91
2023/07/03 01:11:36;;;;;;;;;;;14.80;99.90;;;;;;5001232;28;20413;-91
2023/07/03 01:14:03;;;;;;;;;;;14.80;99.90;;;;;;5014795;28;19925;-92
2023/07/03 01:16:31;;;;;;;;;;;14.80;99.90;;;;;;5014839;28;19930;-90
2023/07/03 01:18:58;;;;;;;;;;;14.80;99.90;;;;;;5014839;28;19932;-91
2023/07/03 01:21:33;;;;;;;;;;;14.80;99.90;;;;;;5014482;28;20001;-91
2023/07/03 01:24:07;;;;;;;;;;;14.80;99.90;;;;;;5015713;28;19929;-91
2023/07/03 01:26:33;;;;;;;;;;;14.90;99.90;;;;;;5012392;28;20013;-91
2023/07/03 01:28:59;;;;;;;;;;;14.80;99.90;;;;;;4997187;28;19933;-91
2023/07/03 01:31:25;;;;;;;;;;;14.80;99.90;;;;;;5014010;28;19926;-91
2023/07/03 01:33:52;;;;;;;;;;;14.80;99.90;;;;;;5015591;28;19926;-91
2023/07/03 01:36:18;;;;;;;;;;;14.80;99.90;;;;;;5013985;28;19975;-92
2023/07/03 01:38:45;;;;;;;;;;;14.80;99.90;;;;;;5014479;28;19951;-91
2023/07/03 01:41:12;;;;;;;;;;;14.80;99.90;;;;;;5012376;28;19925;-91
2023/07/03 01:43:39;;;;;;;;;;;14.80;99.90;;;;;;5011254;28;19925;-91
2023/07/03 01:46:05;;;;;;;;;;;14.70;99.90;;;;;;5013778;28;20021;-92
2023/07/03 01:48:31;;;;;;;;;;;14.70;99.90;;;;;;5012850;28;20008;-90
2023/07/03 01:50:58;;;;;;;;;;;14.70;99.90;;;;;;5014633;28;19929;-88
2023/07/03 01:53:25;;;;;;;;;;;14.70;99.90;;;;;;4994621;28;19926;-91
2023/07/03 01:55:57;;;;;;;;;;;14.70;99.90;;;;;;5012499;28;19929;-88
2023/07/03 01:58:29;;;;;;;;;;;14.60;99.90;;;;;;5012741;28;19941;-89
2023/07/03 02:00:58;;;;;;;;;;;14.60;99.90;;;;;;4994049;28;19926;-91
2023/07/03 02:03:26;;;;;;;;;;;14.50;99.90;;;;;;5012920;28;19925;-90
2023/07/03 02:05:54;;;;;;;;;;;14.50;99.90;;;;;;5013067;28;20008;-92
2023/07/03 02:08:20;;;;;;;;;;;14.50;99.90;;;;;;5015046;28;19929;-91
2023/07/03 02:10:46;;;;;;;;;;;14.50;99.90;;;;;;5013434;28;20325;-92
2023/07/03 02:13:12;;;;;;;;;;;14.40;99.90;;;;;;5013015;28;19930;-91
2023/07/03 02:15:38;;;;;;;;;;;14.40;99.90;;;;;;4996633;28;19934;-90
2023/07/03 02:18:04;;;;;;;;;;;14.40;99.90;;;;;;4994093;28;19930;-92
2023/07/03 02:20:29;;;;;;;;;;;14.40;99.90;;;;;;5013492;28;20111;-91
2023/07/03 02:22:56;;;;;;;;;;;14.40;99.90;;;;;;5013299;28;19926;-90
2023/07/03 02:25:21;;;;;;;;;;;14.40;99.90;;;;;;5012998;28;20005;-89
2023/07/03 02:27:50;;;;;;;;;;;14.30;99.90;;;;;;5004931;28;20405;-90
2023/07/03 02:30:16;;;;;;;;;;;14.30;99.90;;;;;;5011196;28;20091;-90
2023/07/03 02:32:42;;;;;;;;;;;14.30;99.90;;;;;;5013280;28;19925;-91
2023/07/03 02:35:08;;;;;;;;;;;14.30;99.90;;;;;;5012888;28;19926;-90
2023/07/03 02:37:33;;;;;;;;;;;14.20;99.90;;;;;;5013110;28;20302;-91
2023/07/03 02:39:59;;;;;;;;;;;14.20;99.90;;;;;;5013672;28;19930;-89
2023/07/03 02:42:24;;;;;;;;;;;14.20;99.90;;;;;;5012175;28;19925;-92
2023/07/03 02:44:51;;;;;;;;;;;14.20;99.90;;;;;;4994572;28;20388;-91
2023/07/03 02:47:17;;;;;;;;;;;14.10;99.90;;;;;;5002215;28;20021;-92
2023/07/03 02:49:42;;;;;;;;;;;14.10;99.90;;;;;;5006422;28;20021;-90
2023/07/03 02:52:08;;;;;;;;;;;14.00;99.90;;;;;;5011732;28;19983;-92
2023/07/03 02:54:33;;;;;;;;;;;14.00;99.90;;;;;;5013838;28;19925;-91
2023/07/03 02:56:59;;;;;;;;;;;14.00;99.90;;;;;;5010678;28;19956;-91
2023/07/03 02:59:25;;;;;;;;;;;13.90;99.90;;;;;;5012465;28;19969;-90
2023/07/03 03:01:50;;;;;;;;;;;13.80;99.90;;;;;;5013755;28;19960;-91
2023/07/03 03:04:16;;;;;;;;;;;13.70;99.90;;;;;;5013077;28;19925;-90
2023/07/03 03:06:43;;;;;;;;;;;13.60;99.90;;;;;;5013156;28;19925;-91
2023/07/03 03:09:09;;;;;;;;;;;13.60;99.90;;;;;;5013637;28;19926;-92
2023/07/03 03:11:35;;;;;;;;;;;13.60;99.90;;;;;;5011929;28;19926;-91
2023/07/03 03:14:00;;;;;;;;;;;13.50;99.90;;;;;;5014078;28;19968;-93
2023/07/03 03:16:26;;;;;;;;;;;13.50;99.90;;;;;;4993303;28;19968;-89
2023/07/03 03:18:52;;;;;;;;;;;13.50;99.90;;;;;;5013669;28;20040;-91
2023/07/03 03:21:17;;;;;;;;;;;13.50;99.90;;;;;;5013580;28;19929;-92
2023/07/03 03:23:43;;;;;;;;;;;13.40;99.90;;;;;;5013988;28;19992;-91
2023/07/03 03:26:08;;;;;;;;;;;13.40;99.90;;;;;;5012298;28;19935;-91
2023/07/03 03:28:34;;;;;;;;;;;13.40;99.90;;;;;;5012182;28;19925;-91
2023/07/03 03:31:00;;;;;;;;;;;13.30;99.90;;;;;;5011547;28;19972;-91
2023/07/03 03:33:25;;;;;;;;;;;13.30;99.90;;;;;;5013675;28;19925;-92
2023/07/03 03:35:51;;;;;;;;;;;13.30;99.90;;;;;;5013506;28;20491;-91
2023/07/03 03:38:16;;;;;;;;;;;13.20;99.90;;;;;;4996868;28;19934;-91
2023/07/03 03:40:52;;;;;;;;;;;13.20;99.90;;;;;;4995737;28;19987;-90
2023/07/03 03:43:17;;;;;;;;;;;13.20;99.90;;;;;;5011999;28;20021;-91
2023/07/03 03:45:43;;;;;;;;;;;13.20;99.90;;;;;;5015938;28;19981;-92
2023/07/03 03:48:08;;;;;;;;;;;13.20;99.90;;;;;;5002152;28;20041;-91
2023/07/03 03:50:34;;;;;;;;;;;13.20;99.90;;;;;;5013680;28;19975;-92
2023/07/03 03:53:00;;;;;;;;;;;13.20;99.90;;;;;;5011917;28;19989;-91
2023/07/03 03:55:26;;;;;;;;;;;13.20;99.90;;;;;;5012788;28;19926;-91
2023/07/03 03:57:52;;;;;;;;;;;13.30;99.90;;;;;;5014555;28;19926;-91
2023/07/03 04:00:20;;;;;;;;;;;13.50;99.90;;;;;;5013366;28;19944;-92
2023/07/03 04:02:46;;;;;;;;;;;13.60;99.90;;;;;;5017077;28;20342;-91
2023/07/03 04:05:12;;;;;;;;;;;13.70;99.90;;;;;;4998533;28;20658;-92
2023/07/03 04:07:38;;;;;;;;;;;13.70;99.90;;;;;;5016232;28;19929;-92
2023/07/03 04:10:04;;;;;;;;;;;13.70;99.90;;;;;;4974434;28;19941;-92
2023/07/03 04:12:30;;;;;;;;;;;13.70;99.90;;;;;;4990168;28;19926;-92
2023/07/03 04:14:55;;;;;;;;;;;13.70;99.90;;;;;;5010027;28;19944;-92
2023/07/03 04:17:21;;;;;;;;;;;13.70;99.90;;;;;;5009583;28;19979;-91
2023/07/03 04:19:47;;;;;;;;;;;13.60;99.90;;;;;;4994034;28;20340;-92
2023/07/03 04:22:12;;;;;;;;;;;13.60;99.90;;;;;;5018127;28;19983;-91
2023/07/03 04:24:40;;;;;;;;;;;13.70;99.90;;;;;;5004451;28;19922;-94
2023/07/03 04:27:08;;;;;;;;;;;13.60;99.90;;;;;;5009986;28;19933;-94
2023/07/03 04:29:33;;;;;;;;;;;13.60;99.90;;;;;;5018546;28;19937;-95
2023/07/03 04:31:59;;;;;;;;;;;13.50;99.90;;;;;;4971968;28;19930;-95
2023/07/03 04:34:24;;;;;;;;;;;13.60;99.90;;;;;;5028509;28;19929;-91
2023/07/03 04:36:51;;;;;;;;;;;13.60;99.90;;;;;;5037172;28;19913;-93
2023/07/03 04:39:16;;;;;;;;;;;13.70;99.90;;;;;;5002396;28;20001;-94
2023/07/03 04:41:42;;;;;;;;;;;13.70;99.90;;;;;;5017170;28;19926;-92
2023/07/03 04:44:12;;;;;;;;;;;13.80;99.90;;;;;;5004041;28;19981;-92
2023/07/03 04:46:38;;;;;;;;;;;13.80;99.90;;;;;;5006725;28;19953;-93
2023/07/03 04:49:04;;;;;;;;;;;13.80;99.90;;;;;;5021859;28;19935;-93
2023/07/03 04:51:30;;;;;;;;;;;13.80;99.90;;;;;;5004297;28;19934;-93
2023/07/03 04:53:58;;;;;;;;;;;13.90;99.90;;;;;;5021124;28;20003;-93
2023/07/03 04:56:24;;;;;;;;;;;13.90;99.90;;;;;;5020043;28;20012;-93
2023/07/03 04:58:50;;;;;;;;;;;13.90;99.90;;;;;;5017942;28;19937;-92
2023/07/03 05:01:16;;;;;;;;;;;14.00;99.90;;;;;;5005572;28;20004;-92
2023/07/03 05:03:41;;;;;;;;;;;14.10;99.90;;;;;;5030373;28;19929;-93
2023/07/03 05:06:07;;;;;;;;;;;14.10;99.90;;;;;;5033608;28;19989;-89
2023/07/03 05:08:33;;;;;;;;;;;14.10;99.90;;;;;;5033432;28;19980;-92
2023/07/03 05:10:59;;;;;;;;;;;14.20;99.90;;;;;;5032213;28;19913;-88
2023/07/03 05:13:25;;;;;;;;;;;14.20;99.90;;;;;;5016991;28;19914;-92
2023/07/03 05:15:52;;;;;;;;;;;14.30;99.90;;;;;;5013259;28;19920;-90
2023/07/03 05:18:17;;;;;;;;;;;14.30;99.90;;;;;;5038515;28;19922;-91
2023/07/03 05:20:44;;;;;;;;;;;14.30;99.90;;;;;;5018319;28;19968;-90
2023/07/03 05:23:13;;;;;;;;;;;14.40;99.90;;;;;;5016033;28;19926;-93
2023/07/03 05:25:39;;;;;;;;;;;14.40;99.90;;;;;;5038731;28;20005;-89
2023/07/03 05:28:04;;;;;;;;;;;14.40;99.90;;;;;;5045787;28;19913;-92
2023/07/03 05:30:30;;;;;;;;;;;14.50;99.90;;;;;;5030162;28;19952;-93
2023/07/03 05:32:55;;;;;;;;;;;14.50;99.90;;;;;;5024288;28;19922;-93
2023/07/03 05:35:21;;;;;;;;;;;14.60;99.90;;;;;;5024586;28;20052;-93
2023/07/03 05:37:47;;;;;;;;;;;14.70;99.90;;;;;;5023586;28;20034;-92
2023/07/03 05:40:14;;;;;;;;;;;14.70;99.90;;;;;;5022765;28;19922;-93
2023/07/03 05:42:40;;;;;;;;;;;14.90;99.90;;;;;;5021597;28;19952;-93
2023/07/03 05:45:06;;;;;;;;;;;14.90;99.90;;;;;;5023553;28;19921;-93
2023/07/03 05:47:32;;;;;;;;;;;14.90;99.90;;;;;;5008900;28;19932;-91
2023/07/03 05:49:58;;;;;;;;;;;14.90;99.90;;;;;;5006270;28;19977;-90
2023/07/03 05:52:23;;;;;;;;;;;15.20;99.90;;;;;;5017575;28;19921;-90
2023/07/03 05:54:49;;;;;;;;;;;14.60;99.90;;;;;;5020266;28;19957;-91
2023/07/03 05:57:15;;;;;;;;;;;14.30;99.90;;;;;;5014305;28;19913;-89
2023/07/03 05:59:40;;;;;;;;;;;14.20;99.90;;;;;;5033705;28;19929;-90
2023/07/03 06:02:11;;;;;;;;;;;14.20;99.90;;;;;;5021900;28;19980;-90
2023/07/03 06:04:36;;;;;;;;;;;14.10;99.90;;;;;;5037848;28;19914;-90
2023/07/03 06:07:02;;;;;;;;;;;14.00;99.90;;;;;;5036421;28;19940;-89
2023/07/03 06:09:30;;;;;;;;;;;14.00;99.90;;;;;;5034415;28;20145;-89
2023/07/03 06:11:55;;;;;;;;;;;13.90;99.90;;;;;;5022767;28;19961;-92
2023/07/03 06:14:22;;;;;;;;;;;13.90;99.90;;;;;;4994827;28;19973;-89
2023/07/03 06:16:49;;;;;;;;;;;14.00;99.90;;;;;;5005935;28;19922;-91
2023/07/03 06:19:15;;;;;;;;;;;14.20;99.90;;;;;;5009971;28;20015;-91
2023/07/03 06:21:41;;;;;;;;;;;14.40;99.90;;;;;;5013574;28;19921;-91
2023/07/03 06:24:08;;;;;;;;;;;14.60;99.90;;;;;;5014124;28;19971;-92
2023/07/03 06:26:33;;;;;;;;;;;14.80;99.90;;;;;;4992770;28;20060;-90
2023/07/03 06:28:59;;;;;;;;;;;14.80;99.90;;;;;;5010911;28;19973;-91
2023/07/03 06:31:26;;;;;;;;;;;14.90;99.90;;;;;;5014834;28;19968;-93
2023/07/03 06:33:51;;;;;;;;;;;15.00;99.90;;;;;;5028111;28;19921;-91
2023/07/03 06:36:21;;;;;;;;;;;15.10;99.90;;;;;;5014107;28;20285;-93
2023/07/03 06:38:53;;;;;;;;;;;15.20;99.90;;;;;;5011559;28;19926;-94
2023/07/03 06:41:22;;;;;;;;;;;15.40;99.90;;;;;;5012192;28;19961;-93
2023/07/03 06:43:48;;;;;;;;;;;15.40;99.90;;;;;;5013544;28;19929;-90
2023/07/03 06:46:14;;;;;;;;;;;15.40;99.90;;;;;;5009778;28;19925;-92
2023/07/03 06:48:40;;;;;;;;;;;15.30;99.90;;;;;;4993191;28;20381;-91
2023/07/03 06:51:07;;;;;;;;;;;15.30;99.90;;;;;;5009972;28;20280;-92
2023/07/03 06:53:33;;;;;;;;;;;15.20;99.90;;;;;;5013483;28;19921;-91
2023/07/03 06:55:59;;;;;;;;;;;15.20;99.90;;;;;;4992473;28;19925;-89
2023/07/03 06:58:25;;;;;;;;;;;15.00;99.90;;;;;;5008290;28;19928;-90
2023/07/03 07:00:51;;;;;;;;;;;14.90;99.90;;;;;;5011261;28;19984;-89
2023/07/03 07:03:17;;;;;;;;;;;14.80;99.90;;;;;;4996679;28;20009;-92
2023/07/03 07:05:42;;;;;;;;;;;14.80;99.90;;;;;;5012883;28;19922;-91
2023/07/03 07:08:08;;;;;;;;;;;14.60;99.90;;;;;;5013173;28;19925;-92
2023/07/03 07:10:37;;;;;;;;;;;14.60;99.90;;;;;;4992940;28;19929;-94
2023/07/03 07:13:03;;;;;;;;;;;14.70;99.90;;;;;;5002915;28;19960;-91
2023/07/03 07:15:28;;;;;;;;;;;14.70;99.90;;;;;;4994766;28;20080;-96
2023/07/03 07:17:54;;;;;;;;;;;14.80;99.90;;;;;;5012982;28;19991;-93
2023/07/03 07:20:20;;;;;;;;;;;14.80;99.90;;;;;;5013067;28;19936;-93
2023/07/03 07:22:46;;;;;;;;;;;14.90;99.90;;;;;;5012818;28;19929;-93
2023/07/03 07:25:12;;;;;;;;;;;14.90;99.90;;;;;;5013638;28;19948;-93
2023/07/03 07:27:38;;;;;;;;;;;15.00;99.90;;;;;;4995849;28;19921;-93
2023/07/03 07:30:03;;;;;;;;;;;15.00;99.90;;;;;;5012750;28;19928;-93
2023/07/03 07:32:29;;;;;;;;;;;15.10;99.90;;;;;;4980152;28;20015;-93
2023/07/03 07:34:54;;;;;;;;;;;15.20;99.90;;;;;;5013005;28;19928;-92
2023/07/03 07:37:20;;;;;;;;;;;15.20;99.90;;;;;;5013102;28;19922;-90
2023/07/03 07:39:46;;;;;;;;;;;15.20;99.90;;;;;;5012954;28;19928;-93
2023/07/03 07:42:12;;;;;;;;;;;15.20;99.90;;;;;;5010171;28;19926;-93
2023/07/03 07:44:38;;;;;;;;;;;15.10;99.90;;;;;;5013165;28;19987;-93
2023/07/03 07:47:03;;;;;;;;;;;15.00;99.90;;;;;;5009362;28;19972;-92
2023/07/03 07:49:29;;;;;;;;;;;15.00;99.90;;;;;;4992526;28;20393;-92
2023/07/03 07:51:57;;;;;;;;;;;15.40;99.90;;;;;;5011141;28;20040;-91
2023/07/03 07:54:22;;;;;;;;;;;15.00;99.90;;;;;;5004594;28;20440;-93
2023/07/03 07:56:48;;;;;;;;;;;15.00;99.90;;;;;;5010636;28;20065;-89
2023/07/03 07:59:13;;;;;;;;;;;15.10;99.90;;;;;;5001014;28;19929;-91
2023/07/03 08:01:39;;;;;;;;;;;15.20;99.90;;;;;;5014863;28;19925;-92
2023/07/03 08:04:04;;;;;;;;;;;15.30;99.90;;;;;;5019258;28;19929;-94
2023/07/03 08:06:30;;;;;;;;;;;15.40;99.90;;;;;;4999450;28;19922;-92
2023/07/03 08:08:56;;;;;;;;;;;15.60;99.90;;;;;;4996709;28;20266;-94
2023/07/03 08:11:21;;;;;;;;;;;15.60;99.90;;;;;;5017280;28;19980;-91
2023/07/03 08:13:47;;;;;;;;;;;15.70;99.90;;;;;;5008859;28;20353;-93
2023/07/03 08:16:15;;;;;;;;;;;15.90;99.90;;;;;;5028066;28;19922;-92
2023/07/03 08:18:40;;;;;;;;;;;16.10;99.90;;;;;;5028401;28;19933;-93
2023/07/03 08:21:06;;;;;;;;;;;16.20;99.90;;;;;;4999845;28;20001;-92
2023/07/03 08:23:32;;;;;;;;;;;16.40;99.90;;;;;;5004823;28;20342;-90
2023/07/03 08:25:58;;;;;;;;;;;16.60;99.90;;;;;;5024890;28;19925;-90
2023/07/03 08:28:23;;;;;;;;;;;16.70;99.90;;;;;;5004834;28;20024;-91
2023/07/03 08:30:49;;;;;;;;;;;16.70;99.90;;;;;;5022915;28;20030;-91
2023/07/03 08:33:15;;;;;;;;;;;16.60;99.90;;;;;;5028520;28;19929;-93
2023/07/03 08:35:41;;;;;;;;;;;16.50;99.90;;;;;;5018491;28;20016;-91
2023/07/03 08:38:08;;;;;;;;;;;16.50;99.90;;;;;;5019215;28;20016;-91
2023/07/03 08:40:34;;;;;;;;;;;16.40;99.90;;;;;;5019072;28;19951;-92
2023/07/03 08:43:01;;;;;;;;;;;16.30;99.90;;;;;;5018668;28;19933;-91
2023/07/03 08:45:46;;;;;;;;;;;16.40;99.90;;;;;;5019146;28;19933;-91
2023/07/03 08:48:18;;;;;;;;;;;16.60;99.90;;;;;;5014411;28;19921;-91
2023/07/03 08:50:46;;;;;;;;;;;16.60;99.90;;;;;;5019179;28;19991;-92
2023/07/03 08:53:14;;;;;;;;;;;16.60;99.90;;;;;;5019366;28;19960;-91
2023/07/03 08:55:45;;;;;;;;;;;16.50;99.90;;;;;;4994808;28;19968;-90
2023/07/03 08:58:11;;;;;;;;;;;16.40;99.90;;;;;;5018443;28;19929;-93
2023/07/03 09:00:47;;;;;;;;;;;16.50;99.90;;;;;;5019302;28;19926;-88
2023/07/03 09:03:30;;;;;;;;;;;16.60;99.90;;;;;;5018399;28;20366;-92
2023/07/03 09:06:01;;;;;;;;;;;16.70;99.90;;;;;;5019343;28;19925;-91
2023/07/03 09:08:35;;;;;;;;;;;16.60;99.90;;;;;;5018176;28;19943;-91
2023/07/03 09:11:01;;;;;;;;;;;16.20;99.90;;;;;;5015073;28;19933;-87
2023/07/03 09:13:32;;;;;;;;;;;15.50;99.90;;;;;;5014906;28;19952;-89
2023/07/03 09:15:57;;;;;;;;;;;15.40;99.90;;;;;;5010114;28;20313;-90
2023/07/03 09:18:26;;;;;;;;;;;15.40;99.90;;;;;;5014830;28;19921;-91
2023/07/03 09:20:52;;;;;;;;;;;15.40;99.90;;;;;;5014618;28;20301;-90
2023/07/03 09:23:20;;;;;;;;;;;15.50;99.90;;;;;;4996385;28;19930;-91
2023/07/03 09:25:49;;;;;;;;;;;15.80;99.90;;;;;;5013547;28;20328;-96
2023/07/03 09:28:14;;;;;;;;;;;16.10;99.90;;;;;;5013027;28;20004;-92
2023/07/03 09:30:40;;;;;;;;;;;16.30;99.90;;;;;;5014530;28;20012;-87
2023/07/03 09:33:09;;;;;;;;;;;16.40;99.90;;;;;;4995340;28;19922;-91
2023/07/03 09:35:35;;;;;;;;;;;16.40;99.90;;;;;;5012783;28;19933;-91
2023/07/03 09:38:01;;;;;;;;;;;16.50;99.90;;;;;;5014722;28;19921;-88
2023/07/03 09:40:27;;;;;;;;;;;16.60;99.90;;;;;;4997081;28;19933;-92
2023/07/03 09:42:53;;;;;;;;;;;16.60;99.90;;;;;;5012342;28;19932;-89
2023/07/03 09:45:22;;;;;;;;;;;16.60;99.90;;;;;;5014328;28;19928;-88
2023/07/03 09:47:58;;;;;;;;;;;16.60;99.90;;;;;;5013836;28;20033;-91
2023/07/03 09:50:23;;;;;;;;;;;16.60;99.90;;;;;;4981958;28;19921;-88
2023/07/03 09:52:52;;;;;;;;;;;16.70;99.90;;;;;;5014144;28;19932;-92
2023/07/03 09:55:19;;;;;;;;;;;16.50;99.90;;;;;;5004400;28;19925;-92
2023/07/03 09:57:44;;;;;;;;;;;16.50;99.90;;;;;;4995143;28;19921;-90
2023/07/03 10:00:23;;;;;;;;;;;16.30;99.90;;;;;;5013703;28;19951;-92
2023/07/03 10:02:52;;;;;;;;;;;16.20;99.90;;;;;;5015219;28;19929;-91
2023/07/03 10:05:19;;;;;;;;;;;16.10;99.90;;;;;;5014013;28;19921;-91
2023/07/03 10:07:45;;;;;;;;;;;16.00;99.90;;;;;;5013222;28;19940;-92
2023/07/03 10:10:16;;;;;;;;;;;15.80;99.90;;;;;;5013696;28;19956;-94
2023/07/03 10:12:45;;;;;;;;;;;15.50;99.90;;;;;;5012562;28;19922;-90
2023/07/03 10:15:16;;;;;;;;;;;15.30;99.90;;;;;;5013587;28;20288;-89
2023/07/03 10:17:52;;;;;;;;;;;15.00;99.90;;;;;;5010929;28;19976;-90
2023/07/03 10:20:23;;;;;;;;;;;14.80;99.90;;;;;;4983383;28;19929;-89
2023/07/03 10:22:49;;;;;;;;;;;14.70;99.90;;;;;;5014107;28;19925;-90
2023/07/03 10:25:18;;;;;;;;;;;14.70;99.90;;;;;;5012752;28;20003;-90
2023/07/03 10:27:45;;;;;;;;;;;14.70;99.90;;;;;;5005454;28;19977;-91
2023/07/03 10:30:15;;;;;;;;;;;14.80;99.90;;;;;;5017764;28;19925;-93
2023/07/03 10:32:43;;;;;;;;;;;15.20;99.90;;;;;;5021023;28;19928;-90
2023/07/03 10:35:22;;;;;;;;;;;15.60;99.90;;;;;;4997016;28;19921;-90
2023/07/03 10:37:55;;;;;;;;;;;16.10;99.90;;;;;;5013301;28;19928;-91
2023/07/03 10:40:22;;;;;;;;;;;16.60;99.90;;;;;;5010969;28;19926;-94
2023/07/03 10:42:53;;;;;;;;;;;17.00;99.90;;;;;;5012557;28;19926;-92
2023/07/03 10:45:19;;;;;;;;;;;17.40;99.90;;;;;;5013121;28;20501;-89
2023/07/03 10:47:48;;;;;;;;;;;17.50;99.90;;;;;;5014301;28;19957;-90
2023/07/03 10:50:14;;;;;;;;;;;17.40;99.90;;;;;;5009304;28;20270;-93
2023/07/03 10:52:43;;;;;;;;;;;17.00;99.90;;;;;;5013023;28;19921;-90
2023/07/03 10:55:28;;;;;;;;;;;16.80;99.90;;;;;;5012744;28;20012;-91
2023/07/03 10:57:54;;;;;;;;;;;16.70;99.90;;;;;;5003105;28;20305;-94
2023/07/03 11:00:24;;;;;;;;;;;16.60;99.90;;;;;;5013171;28;19925;-92
2023/07/03 11:02:53;;;;;;;;;;;16.60;99.90;;;;;;5014283;28;20019;-90
2023/07/03 11:05:38;;;;;;;;;;;16.60;99.90;;;;;;4993674;28;20346;-91
2023/07/03 11:08:13;;;;;;;;;;;16.60;99.90;;;;;;5011677;28;19944;-93
2023/07/03 11:10:43;;;;;;;;;;;16.70;99.90;;;;;;5014821;28;19922;-91
2023/07/03 11:13:23;;;;;;;;;;;16.80;99.90;;;;;;5013512;28;19945;-95
2023/07/03 11:15:52;;;;;;;;;;;17.00;99.90;;;;;;5007619;28;19922;-92
2023/07/03 11:18:38;;;;;;;;;;;17.30;99.90;;;;;;5013141;28;20265;-90
2023/07/03 11:21:24;;;;;;;;;;;17.50;99.90;;;;;;4995143;28;20354;-92
2023/07/03 11:24:01;;;;;;;;;;;17.60;99.90;;;;;;4996494;28;19932;-92
2023/07/03 11:26:59;;;;;;;;;;;17.90;99.90;;;;;;5013187;28;19922;-89
2023/07/03 11:29:25;;;;;;;;;;;18.00;99.90;;;;;;4966100;28;20349;-90
2023/07/03 11:31:50;;;;;;;;;;;17.90;99.90;;;;;;5007294;28;19921;-89
2023/07/03 11:34:18;;;;;;;;;;;17.90;99.90;;;;;;5012493;28;20369;-91
2023/07/03 11:36:45;;;;;;;;;;;17.90;99.90;;;;;;5011349;28;19925;-91
2023/07/03 11:39:20;;;;;;;;;;;17.90;99.90;;;;;;5012730;28;19921;-91
2023/07/03 11:41:49;;;;;;;;;;;18.00;99.90;;;;;;5012277;28;19933;-90
2023/07/03 11:44:17;;;;;;;;;;;17.90;99.90;;;;;;5012641;28;20021;-87
2023/07/03 11:46:43;;;;;;;;;;;17.70;99.90;;;;;;5006608;28;19925;-91
2023/07/03 11:49:14;;;;;;;;;;;17.60;99.90;;;;;;5012205;28;20007;-91
2023/07/03 11:51:41;;;;;;;;;;;17.50;99.90;;;;;;4995879;28;20012;-92
2023/07/03 11:54:18;;;;;;;;;;;17.50;99.90;;;;;;5012711;28;20425;-91
2023/07/03 11:56:45;;;;;;;;;;;17.40;99.90;;;;;;5007437;28;20251;-91
2023/07/03 11:59:23;;;;;;;;;;;17.30;99.90;;;;;;5012823;28;20039;-92
2023/07/03 12:01:49;;;;;;;;;;;17.20;99.90;;;;;;5013187;28;19932;-89
2023/07/03 12:04:33;;;;;;;;;;;16.90;99.90;;;;;;5012626;28;20011;-92
2023/07/03 12:06:59;;;;;;;;;;;16.90;99.90;;;;;;5009551;28;19929;-91
2023/07/03 12:09:26;;;;;;;;;;;16.70;99.90;;;;;;4988996;28;20021;-91
2023/07/03 12:12:03;;;;;;;;;;;16.80;99.90;;;;;;5010046;28;20003;-88
2023/07/03 12:14:41;;;;;;;;;;;17.00;99.90;;;;;;5011947;28;20377;-91
2023/07/03 12:17:22;;;;;;;;;;;17.20;99.90;;;;;;5003694;28;19926;-92
2023/07/03 12:19:49;;;;;;;;;;;17.30;99.90;;;;;;5013309;28;20247;-92
2023/07/03 12:22:15;;;;;;;;;;;17.40;99.90;;;;;;5012265;28;19925;-91
2023/07/03 12:24:41;;;;;;;;;;;17.30;99.90;;;;;;4995404;28;19980;-92
2023/07/03 12:27:08;;;;;;;;;;;17.20;99.90;;;;;;4995260;28;19933;-90
2023/07/03 12:29:36;;;;;;;;;;;17.10;99.90;;;;;;4999415;28;20009;-91
2023/07/03 12:32:07;;;;;;;;;;;17.00;99.90;;;;;;5012085;28;20424;-92
2023/07/03 12:34:37;;;;;;;;;;;16.90;99.90;;;;;;5013625;28;19932;-91
2023/07/03 12:37:13;;;;;;;;;;;16.80;99.90;;;;;;5011776;28;19925;-90
2023/07/03 12:39:41;;;;;;;;;;;16.70;99.90;;;;;;5006056;28;20220;-92
2023/07/03 12:42:11;;;;;;;;;;;16.80;99.90;;;;;;5018676;28;19926;-92
2023/07/03 12:44:37;;;;;;;;;;;16.90;99.90;;;;;;5017626;28;20365;-90
2023/07/03 12:47:21;;;;;;;;;;;16.90;99.90;;;;;;5010510;28;19933;-92
2023/07/03 12:49:47;;;;;;;;;;;17.00;99.90;;;;;;5015785;28;19932;-90
2023/07/03 12:52:13;;;;;;;;;;;17.10;99.90;;;;;;5018223;28;19925;-91
2023/07/03 12:54:38;;;;;;;;;;;17.10;99.90;;;;;;5023051;28;19925;-92
2023/07/03 12:57:06;;;;;;;;;;;17.00;99.90;;;;;;5016778;28;20255;-88
2023/07/03 12:59:32;;;;;;;;;;;16.90;99.90;;;;;;5012876;28;19976;-91
2023/07/03 13:01:58;;;;;;;;;;;16.80;99.90;;;;;;5016288;28;19958;-91
2023/07/03 13:04:28;;;;;;;;;;;16.60;99.90;;;;;;5015487;28;19929;-91
2023/07/03 13:06:53;;;;;;;;;;;16.60;99.90;;;;;;5014777;28;19964;-92
2023/07/03 13:09:19;;;;;;;;;;;16.50;99.90;;;;;;5014016;28;19930;-91
2023/07/03 13:11:45;;;;;;;;;;;16.60;99.90;;;;;;5008337;28;20052;-91
2023/07/03 13:14:18;;;;;;;;;;;16.40;99.90;;;;;;5014160;28;19926;-91
2023/07/03 13:16:48;;;;;;;;;;;16.40;99.90;;;;;;5007393;28;19972;-89
2023/07/03 13:19:24;;;;;;;;;;;16.50;99.90;;;;;;5014831;28;19934;-92
2023/07/03 13:21:50;;;;;;;;;;;16.60;99.90;;;;;;5014661;28;20301;-90
2023/07/03 13:24:16;;;;;;;;;;;16.70;99.90;;;;;;5014784;28;20017;-91
2023/07/03 13:26:45;;;;;;;;;;;16.70;99.90;;;;;;5013477;28;20421;-89
2023/07/03 13:29:11;;;;;;;;;;;16.90;99.90;;;;;;5012149;28;19980;-91
2023/07/03 13:31:36;;;;;;;;;;;16.90;99.90;;;;;;5014692;28;19925;-93
2023/07/03 13:34:06;;;;;;;;;;;17.10;99.90;;;;;;5014774;28;20313;-92
2023/07/03 13:36:35;;;;;;;;;;;17.10;99.90;;;;;;5010794;28;20003;-93
2023/07/03 13:39:04;;;;;;;;;;;17.10;99.90;;;;;;5008592;28;19925;-93
2023/07/03 13:41:29;;;;;;;;;;;17.10;99.90;;;;;;4993953;28;19980;-91
2023/07/03 13:43:58;;;;;;;;;;;17.00;99.90;;;;;;4988631;28;19972;-95
2023/07/03 13:46:27;;;;;;;;;;;17.30;99.90;;;;;;5014225;28;19947;-91
2023/07/03 13:48:53;;;;;;;;;;;17.50;99.90;;;;;;5014306;28;19925;-89
2023/07/03 13:51:19;;;;;;;;;;;17.80;99.90;;;;;;5008504;28;19953;-87
2023/07/03 13:53:44;;;;;;;;;;;18.00;99.90;;;;;;5015355;28;19925;-91
2023/07/03 13:56:10;;;;;;;;;;;18.20;99.90;;;;;;5013796;28;19988;-93
2023/07/03 13:58:35;;;;;;;;;;;18.20;99.90;;;;;;5013190;28;19925;-91
2023/07/03 14:01:01;;;;;;;;;;;18.20;99.90;;;;;;5010201;28;19925;-89
2023/07/03 14:03:26;;;;;;;;;;;18.10;99.90;;;;;;4998742;28;19930;-92
2023/07/03 14:05:52;;;;;;;;;;;18.20;99.90;;;;;;5015227;28;19926;-92
2023/07/03 14:08:18;;;;;;;;;;;18.50;99.90;;;;;;5015092;28;19925;-94
2023/07/03 14:10:43;;;;;;;;;;;18.70;99.90;;;;;;5013443;28;19964;-90
2023/07/03 14:13:09;;;;;;;;;;;18.70;99.90;;;;;;5013880;28;20031;-91
2023/07/03 14:15:35;;;;;;;;;;;18.40;99.90;;;;;;5007271;28;20424;-92
2023/07/03 14:18:01;;;;;;;;;;;18.30;99.90;;;;;;4994108;28;19925;-92